Hopkins, Michigan
Current Conditions -  °F | °C
As of 8:53 PM on Thursday 18 Dec 2014 (Local Time) from KBIV Reporting Station
Overcast Overcast  
Wind Chill: 33°   Ceiling: 1800
Heat Index: 33°   Visibility: 10mi
Dew Point: 27°   Wind: 3mph
Humidity: 78%   Direction: NA
Pressure: 30.2"   Gusts: NA
Location:  42.62°N, 85.76°W
Report Text: KBIV 190153Z AUTO VRB03KT 10SM FEW012 BKN018 OVC023 01/M03 A3020 RMK AO2 SNB0059E29 SLP236 P0000 T00061028
Loading
Personal Weather Stations






























Interactive Weather Map New forecast layout! Learn more

10-Day Weather Forecast

Advertisements
Track Severe Weather on mobile